sensor_id;sensor_type;location;lat;lon;timestamp;pressure;altitude;pressure_sealevel;temperature;humidity
60228;BME280;46091;46.512;6.626;2022-08-19T04:07:05;96669.94;;;21.58;79.96
60228;BME280;46091;46.512;6.626;2022-08-19T04:09:11;96672.16;;;21.86;79.63
60228;BME280;46091;46.512;6.626;2022-08-19T04:11:17;96671.66;;;22.10;79.00
60228;BME280;46091;46.512;6.626;2022-08-19T04:13:53;96672.72;;;22.29;78.38
60228;BME280;46091;46.512;6.626;2022-08-19T04:15:57;96671.34;;;22.42;77.88
60228;BME280;46091;46.512;6.626;2022-08-19T04:18:00;96677.53;;;22.52;77.41
60228;BME280;46091;46.512;6.626;2022-08-19T04:20:03;96682.38;;;22.60;76.95
60228;BME280;46091;46.512;6.626;2022-08-19T04:22:09;96672.41;;;22.66;76.47
60228;BME280;46091;46.512;6.626;2022-08-19T04:24:13;96674.00;;;22.72;76.37
60228;BME280;46091;46.512;6.626;2022-08-19T04:26:19;96680.72;;;22.80;76.32
60228;BME280;46091;46.512;6.626;2022-08-19T04:28:24;96682.34;;;22.81;75.90
60228;BME280;46091;46.512;6.626;2022-08-19T04:30:27;96681.81;;;22.84;75.86
60228;BME280;46091;46.512;6.626;2022-08-19T04:32:30;96686.66;;;22.87;75.47
60228;BME280;46091;46.512;6.626;2022-08-19T04:34:33;96686.66;;;22.87;75.46
60228;BME280;46091;46.512;6.626;2022-08-19T04:36:37;96688.81;;;22.90;75.53
60228;BME280;46091;46.512;6.626;2022-08-19T04:38:42;96689.34;;;22.92;75.08
60228;BME280;46091;46.512;6.626;2022-08-19T04:40:47;96688.78;;;22.95;75.10
60228;BME280;46091;46.512;6.626;2022-08-19T04:43:08;96694.97;;;22.95;75.07
60228;BME280;46091;46.512;6.626;2022-08-19T04:45:12;96696.59;;;22.97;74.63
60228;BME280;46091;46.512;6.626;2022-08-19T04:47:17;96692.81;;;22.98;75.04
60228;BME280;46091;46.512;6.626;2022-08-19T04:49:40;96698.47;;;22.96;74.79
60228;BME280;46091;46.512;6.626;2022-08-19T04:51:45;96697.97;;;22.94;74.73
60228;BME280;46091;46.512;6.626;2022-08-19T04:53:51;96692.84;;;22.92;74.46
60228;BME280;46091;46.512;6.626;2022-08-19T04:55:55;96696.91;;;22.90;74.10
60228;BME280;46091;46.512;6.626;2022-08-19T04:57:58;96710.09;;;22.91;74.47
60228;BME280;46091;46.512;6.626;2022-08-19T05:00:04;96708.75;;;22.94;74.18
60228;BME280;46091;46.512;6.626;2022-08-19T05:02:08;96703.34;;;22.94;73.95
60228;BME280;46091;46.512;6.626;2022-08-19T05:04:11;96716.56;;;22.95;73.55
60228;BME280;46091;46.512;6.626;2022-08-19T05:06:16;96710.34;;;22.95;73.82
60228;BME280;46091;46.512;6.626;2022-08-19T05:08:20;96719.53;;;22.94;73.32
60228;BME280;46091;46.512;6.626;2022-08-19T05:10:37;96720.31;;;22.94;73.67
60228;BME280;46091;46.512;6.626;2022-08-19T05:12:40;96724.91;;;22.94;73.58
60228;BME280;46091;46.512;6.626;2022-08-19T05:14:43;96728.66;;;22.98;73.29
60228;BME280;46091;46.512;6.626;2022-08-19T05:16:46;96731.94;;;23.00;72.94
60228;BME280;46091;46.512;6.626;2022-08-19T05:18:49;96736.22;;;23.01;72.67
60228;BME280;46091;46.512;6.626;2022-08-19T05:21:13;96735.16;;;23.02;72.94
60228;BME280;46091;46.512;6.626;2022-08-19T05:23:34;96730.84;;;23.01;72.77
60228;BME280;46091;46.512;6.626;2022-08-19T05:25:39;96737.84;;;23.02;72.59
60228;BME280;46091;46.512;6.626;2022-08-19T05:27:42;96741.63;;;23.01;72.32
60228;BME280;46091;46.512;6.626;2022-08-19T05:29:45;96743.78;;;22.99;72.14
60228;BME280;46091;46.512;6.626;2022-08-19T05:31:49;96746.72;;;22.98;72.08
60228;BME280;46091;46.512;6.626;2022-08-19T05:33:52;96753.72;;;22.99;72.27
60228;BME280;46091;46.512;6.626;2022-08-19T05:35:54;96760.22;;;22.98;71.95
60228;BME280;46091;46.512;6.626;2022-08-19T05:37:57;96755.09;;;22.96;71.75
60228;BME280;46091;46.512;6.626;2022-08-19T05:40:00;96761.56;;;22.95;71.74
60228;BME280;46091;46.512;6.626;2022-08-19T05:42:07;96759.69;;;22.95;71.81
60228;BME280;46091;46.512;6.626;2022-08-19T05:44:11;96753.75;;;22.93;71.91
60228;BME280;46091;46.512;6.626;2022-08-19T05:46:17;96754.03;;;22.92;71.70
60228;BME280;46091;46.512;6.626;2022-08-19T05:48:28;96755.94;;;22.91;71.53
60228;BME280;46091;46.512;6.626;2022-08-19T05:50:31;96758.38;;;22.88;71.57
60228;BME280;46091;46.512;6.626;2022-08-19T05:52:36;96763.75;;;22.88;71.23
60228;BME280;46091;46.512;6.626;2022-08-19T05:54:50;96759.97;;;22.89;71.34
60228;BME280;46091;46.512;6.626;2022-08-19T05:56:53;96757.81;;;22.86;71.43
60228;BME280;46091;46.512;6.626;2022-08-19T05:58:58;96755.13;;;22.86;71.08
60228;BME280;46091;46.512;6.626;2022-08-19T06:01:01;96764.28;;;22.85;70.96
60228;BME280;46091;46.512;6.626;2022-08-19T06:03:06;96762.66;;;22.84;70.81
60228;BME280;46091;46.512;6.626;2022-08-19T06:05:13;96768.06;;;22.84;70.75
60228;BME280;46091;46.512;6.626;2022-08-19T06:07:16;96773.44;;;22.84;70.73
60228;BME280;46091;46.512;6.626;2022-08-19T06:09:19;96771.81;;;22.83;70.89
60228;BME280;46091;46.512;6.626;2022-08-19T06:11:33;96780.97;;;22.82;71.01
60228;BME280;46091;46.512;6.626;2022-08-19T06:13:36;96780.97;;;22.82;70.54
60228;BME280;46091;46.512;6.626;2022-08-19T06:15:41;96783.66;;;22.82;70.61
60228;BME280;46091;46.512;6.626;2022-08-19T06:17:45;96789.06;;;22.82;70.45
60228;BME280;46091;46.512;6.626;2022-08-19T06:19:48;96787.97;;;22.83;70.77
60228;BME280;46091;46.512;6.626;2022-08-19T06:21:52;96798.75;;;22.83;70.53
60228;BME280;46091;46.512;6.626;2022-08-19T06:23:56;96797.16;;;22.82;70.75
60228;BME280;46091;46.512;6.626;2022-08-19T06:25:59;96797.41;;;22.80;70.75
60228;BME280;46091;46.512;6.626;2022-08-19T06:28:02;96794.72;;;22.80;70.28
60228;BME280;46091;46.512;6.626;2022-08-19T06:30:15;96801.72;;;22.81;70.31
60228;BME280;46091;46.512;6.626;2022-08-19T06:32:20;96806.03;;;22.82;70.42
60228;BME280;46091;46.512;6.626;2022-08-19T06:34:23;96809.00;;;22.81;70.18
60228;BME280;46091;46.512;6.626;2022-08-19T06:36:30;96810.63;;;22.82;70.35
60228;BME280;46091;46.512;6.626;2022-08-19T06:38:35;96798.75;;;22.83;69.93
60228;BME280;46091;46.512;6.626;2022-08-19T06:40:38;96802.28;;;22.83;70.27
60228;BME280;46091;46.512;6.626;2022-08-19T06:42:41;96807.69;;;22.83;70.32
60228;BME280;46091;46.512;6.626;2022-08-19T06:44:55;96816.56;;;22.84;70.09
60228;BME280;46091;46.512;6.626;2022-08-19T06:47:01;96822.22;;;22.82;69.99
60228;BME280;46091;46.512;6.626;2022-08-19T06:49:17;96817.91;;;22.81;69.96
60228;BME280;46091;46.512;6.626;2022-08-19T06:51:20;96827.06;;;22.80;70.17
60228;BME280;46091;46.512;6.626;2022-08-19T06:53:25;96824.09;;;22.82;69.86
60228;BME280;46091;46.512;6.626;2022-08-19T06:55:30;96822.47;;;22.81;69.68
60228;BME280;46091;46.512;6.626;2022-08-19T06:57:34;96831.38;;;22.81;69.80
60228;BME280;46091;46.512;6.626;2022-08-19T06:59:37;96830.56;;;22.81;69.87
60228;BME280;46091;46.512;6.626;2022-08-19T07:01:42;96832.44;;;22.80;69.79
60228;BME280;46091;46.512;6.626;2022-08-19T07:03:47;96830.84;;;22.79;69.86
60228;BME280;46091;46.512;6.626;2022-08-19T07:05:52;96832.72;;;22.79;69.56
60228;BME280;46091;46.512;6.626;2022-08-19T07:07:55;96830.03;;;22.79;69.41
60228;BME280;46091;46.512;6.626;2022-08-19T07:10:06;96833.25;;;22.81;69.66
60228;BME280;46091;46.512;6.626;2022-08-19T07:12:12;96847.28;;;22.83;69.71
60228;BME280;46091;46.512;6.626;2022-08-19T07:14:17;96836.50;;;22.83;69.47
60228;BME280;46091;46.512;6.626;2022-08-19T07:16:21;96846.22;;;22.84;69.18
60228;BME280;46091;46.512;6.626;2022-08-19T07:18:30;96842.97;;;22.82;69.03
60228;BME280;46091;46.512;6.626;2022-08-19T07:20:33;96851.63;;;22.84;69.44
60228;BME280;46091;46.512;6.626;2022-08-19T07:22:39;96855.91;;;22.85;69.03
60228;BME280;46091;46.512;6.626;2022-08-19T07:24:42;96855.13;;;22.84;68.97
60228;BME280;46091;46.512;6.626;2022-08-19T07:26:53;96852.41;;;22.84;68.92
60228;BME280;46091;46.512;6.626;2022-08-19T07:28:58;96857.53;;;22.86;68.70
60228;BME280;46091;46.512;6.626;2022-08-19T07:31:07;96862.94;;;22.86;68.71
60228;BME280;46091;46.512;6.626;2022-08-19T07:33:10;96856.44;;;22.87;68.40
60228;BME280;46091;46.512;6.626;2022-08-19T07:35:15;96859.16;;;22.87;68.69
60228;BME280;46091;46.512;6.626;2022-08-19T07:37:21;96854.56;;;22.87;68.39
60228;BME280;46091;46.512;6.626;2022-08-19T07:39:27;96854.56;;;22.87;68.56
60228;BME280;46091;46.512;6.626;2022-08-19T07:41:31;96850.00;;;22.88;68.15
60228;BME280;46091;46.512;6.626;2022-08-19T07:43:34;96859.44;;;22.90;68.48
60228;BME280;46091;46.512;6.626;2022-08-19T07:45:37;96864.56;;;22.92;68.26
60228;BME280;46091;46.512;6.626;2022-08-19T07:47:42;96861.84;;;22.92;68.21
60228;BME280;46091;46.512;6.626;2022-08-19T07:49:59;96866.72;;;22.95;68.06
60228;BME280;46091;46.512;6.626;2022-08-19T07:52:06;96860.22;;;22.96;67.93
60228;BME280;46091;46.512;6.626;2022-08-19T07:54:09;96861.56;;;22.99;68.11
60228;BME280;46091;46.512;6.626;2022-08-19T07:56:14;96857.28;;;23.03;67.57
60228;BME280;46091;46.512;6.626;2022-08-19T07:58:20;96865.09;;;23.04;67.50
60228;BME280;46091;46.512;6.626;2022-08-19T08:00:24;96868.59;;;23.05;67.60
60228;BME280;46091;46.512;6.626;2022-08-19T08:02:27;96865.09;;;23.04;67.48
60228;BME280;46091;46.512;6.626;2022-08-19T08:04:31;96869.94;;;23.02;68.02
60228;BME280;46091;46.512;6.626;2022-08-19T08:06:51;96875.34;;;23.02;67.95
60228;BME280;46091;46.512;6.626;2022-08-19T08:09:14;96869.94;;;23.02;67.93
60228;BME280;46091;46.512;6.626;2022-08-19T08:11:28;96881.53;;;23.03;67.48
60228;BME280;46091;46.512;6.626;2022-08-19T08:13:31;96879.66;;;23.03;67.52
60228;BME280;46091;46.512;6.626;2022-08-19T08:15:37;96880.19;;;23.05;67.41
60228;BME280;46091;46.512;6.626;2022-08-19T08:17:44;96873.72;;;23.06;67.58
60228;BME280;46091;46.512;6.626;2022-08-19T08:19:52;96878.28;;;23.06;67.51
60228;BME280;46091;46.512;6.626;2022-08-19T08:21:57;96878.03;;;23.07;67.45
60228;BME280;46091;46.512;6.626;2022-08-19T08:24:00;96874.25;;;23.08;67.47
60228;BME280;46091;46.512;6.626;2022-08-19T08:26:02;96874.78;;;23.10;67.19
60228;BME280;46091;46.512;6.626;2022-08-19T08:28:07;96879.34;;;23.10;67.37
60228;BME280;46091;46.512;6.626;2022-08-19T08:30:20;96884.50;;;23.11;67.75
60228;BME280;46091;46.512;6.626;2022-08-19T08:32:23;96884.50;;;23.11;67.16
60228;BME280;46091;46.512;6.626;2022-08-19T08:34:27;96883.44;;;23.12;67.20
60228;BME280;46091;46.512;6.626;2022-08-19T08:36:29;96886.66;;;23.14;67.10
60228;BME280;46091;46.512;6.626;2022-08-19T08:38:35;96889.88;;;23.16;67.30
60228;BME280;46091;46.512;6.626;2022-08-19T08:40:45;96886.63;;;23.19;66.90
60228;BME280;46091;46.512;6.626;2022-08-19T08:42:55;96897.97;;;23.21;67.29
60228;BME280;46091;46.512;6.626;2022-08-19T08:45:12;96897.44;;;23.24;67.20
60228;BME280;46091;46.512;6.626;2022-08-19T08:47:18;96900.13;;;23.30;67.53
60228;BME280;46091;46.512;6.626;2022-08-19T08:49:39;96903.09;;;23.33;66.92
60228;BME280;46091;46.512;6.626;2022-08-19T08:51:47;96902.81;;;23.35;67.30
60228;BME280;46091;46.512;6.626;2022-08-19T08:54:05;96911.19;;;23.33;66.70
60228;BME280;46091;46.512;6.626;2022-08-19T08:56:11;96909.03;;;23.35;66.73
60228;BME280;46091;46.512;6.626;2022-08-19T08:58:25;96916.03;;;23.36;66.85
60228;BME280;46091;46.512;6.626;2022-08-19T09:00:34;96905.53;;;23.35;66.51
60228;BME280;46091;46.512;6.626;2022-08-19T09:02:39;96913.06;;;23.38;66.91
60228;BME280;46091;46.512;6.626;2022-08-19T09:04:44;96906.56;;;23.44;66.81
60228;BME280;46091;46.512;6.626;2022-08-19T09:06:55;96909.28;;;23.49;66.43
60228;BME280;46091;46.512;6.626;2022-08-19T09:09:04;96911.69;;;23.50;66.63
60228;BME280;46091;46.512;6.626;2022-08-19T09:11:16;96918.69;;;23.51;66.45
60228;BME280;46091;46.512;6.626;2022-08-19T09:13:47;96923.28;;;23.51;66.31
60228;BME280;46091;46.512;6.626;2022-08-19T09:16:00;96930.31;;;23.52;66.05
60228;BME280;46091;46.512;6.626;2022-08-19T09:18:05;96930.84;;;23.49;66.53
60228;BME280;46091;46.512;6.626;2022-08-19T09:20:15;96934.09;;;23.46;66.47
60228;BME280;46091;46.512;6.626;2022-08-19T09:22:20;96925.19;;;23.45;66.22
60228;BME280;46091;46.512;6.626;2022-08-19T09:24:26;96933.03;;;23.47;66.13
60228;BME280;46091;46.512;6.626;2022-08-19T09:26:32;96931.41;;;23.46;66.15
60228;BME280;46091;46.512;6.626;2022-08-19T09:28:53;96939.22;;;23.47;66.59
60228;BME280;46091;46.512;6.626;2022-08-19T09:31:00;96935.44;;;23.48;66.15
60228;BME280;46091;46.512;6.626;2022-08-19T09:33:03;96944.34;;;23.49;66.60
60228;BME280;46091;46.512;6.626;2022-08-19T09:35:06;96941.66;;;23.49;66.28
60228;BME280;46091;46.512;6.626;2022-08-19T09:37:12;96941.66;;;23.49;66.30
60228;BME280;46091;46.512;6.626;2022-08-19T09:39:16;96945.44;;;23.48;66.82
60228;BME280;46091;46.512;6.626;2022-08-19T09:41:20;96943.81;;;23.47;66.16
60228;BME280;46091;46.512;6.626;2022-08-19T09:43:24;96957.56;;;23.45;66.53
60228;BME280;46091;46.512;6.626;2022-08-19T09:45:34;96950.56;;;23.44;66.27
60228;BME280;46091;46.512;6.626;2022-08-19T09:47:38;96953.00;;;23.46;66.52
60228;BME280;46091;46.512;6.626;2022-08-19T09:49:41;96957.84;;;23.49;66.11
60228;BME280;46091;46.512;6.626;2022-08-19T09:51:45;96954.59;;;23.52;66.57
60228;BME280;46091;46.512;6.626;2022-08-19T09:53:52;96959.69;;;23.53;66.31
60228;BME280;46091;46.512;6.626;2022-08-19T09:55:56;96960.50;;;23.54;66.14
60228;BME280;46091;46.512;6.626;2022-08-19T09:58:00;96960.50;;;23.54;65.98
60228;BME280;46091;46.512;6.626;2022-08-19T10:00:05;96959.19;;;23.57;65.86
60228;BME280;46091;46.512;6.626;2022-08-19T10:02:08;96959.47;;;23.60;65.99
60228;BME280;46091;46.512;6.626;2022-08-19T10:04:14;96956.50;;;23.62;65.78
60228;BME280;46091;46.512;6.626;2022-08-19T10:06:24;96970.53;;;23.64;66.04
60228;BME280;46091;46.512;6.626;2022-08-19T10:08:48;96972.41;;;23.68;65.92
60228;BME280;46091;46.512;6.626;2022-08-19T10:10:51;96968.63;;;23.69;65.70
60228;BME280;46091;46.512;6.626;2022-08-19T10:12:55;96959.47;;;23.70;65.91
60228;BME280;46091;46.512;6.626;2022-08-19T10:14:57;96965.91;;;23.74;65.42
60228;BME280;46091;46.512;6.626;2022-08-19T10:17:01;96953.75;;;23.77;65.54
60228;BME280;46091;46.512;6.626;2022-08-19T10:19:21;96964.84;;;23.80;65.36
60228;BME280;46091;46.512;6.626;2022-08-19T10:21:28;96961.59;;;23.84;65.63
60228;BME280;46091;46.512;6.626;2022-08-19T10:23:32;96957.53;;;23.86;65.27
60228;BME280;46091;46.512;6.626;2022-08-19T10:25:36;96964.81;;;23.91;65.67
60228;BME280;46091;46.512;6.626;2022-08-19T10:27:39;96971.56;;;23.93;65.28
60228;BME280;46091;46.512;6.626;2022-08-19T10:29:45;96963.19;;;23.95;65.17
60228;BME280;46091;46.512;6.626;2022-08-19T10:31:49;96971.53;;;23.98;65.40
60228;BME280;46091;46.512;6.626;2022-08-19T10:34:03;96967.75;;;23.99;65.56
60228;BME280;46091;46.512;6.626;2022-08-19T10:36:10;96967.22;;;24.02;65.53
60228;BME280;46091;46.512;6.626;2022-08-19T10:38:19;96972.31;;;24.09;65.19
60228;BME280;46091;46.512;6.626;2022-08-19T10:40:32;96974.44;;;24.12;65.33
60228;BME280;46091;46.512;6.626;2022-08-19T10:42:35;96968.81;;;24.14;65.18
60228;BME280;46091;46.512;6.626;2022-08-19T10:44:38;96970.41;;;24.15;65.24
60228;BME280;46091;46.512;6.626;2022-08-19T10:46:42;96970.41;;;24.15;64.84
60228;BME280;46091;46.512;6.626;2022-08-19T10:48:49;96968.00;;;24.13;64.89
60228;BME280;46091;46.512;6.626;2022-08-19T10:50:52;96979.59;;;24.14;64.65
60228;BME280;46091;46.512;6.626;2022-08-19T10:53:24;96974.19;;;24.14;64.85
60228;BME280;46091;46.512;6.626;2022-08-19T10:55:28;96972.84;;;24.16;64.69
60228;BME280;46091;46.512;6.626;2022-08-19T10:57:48;96983.88;;;24.20;64.24
60228;BME280;46091;46.512;6.626;2022-08-19T11:00:04;96974.97;;;24.19;64.25
60228;BME280;46091;46.512;6.626;2022-08-19T11:02:09;96980.91;;;24.21;64.40
60228;BME280;46091;46.512;6.626;2022-08-19T11:04:13;96988.72;;;24.23;64.49
60228;BME280;46091;46.512;6.626;2022-08-19T11:06:19;96979.81;;;24.22;64.63
60228;BME280;46091;46.512;6.626;2022-08-19T11:08:22;96984.13;;;24.23;63.96
60228;BME280;46091;46.512;6.626;2022-08-19T11:10:27;96980.91;;;24.26;64.21
60228;BME280;46091;46.512;6.626;2022-08-19T11:12:30;96983.31;;;24.28;64.38
60228;BME280;46091;46.512;6.626;2022-08-19T11:14:34;96981.44;;;24.23;63.91
60228;BME280;46091;46.512;6.626;2022-08-19T11:16:38;96979.81;;;24.22;63.83
60228;BME280;46091;46.512;6.626;2022-08-19T11:18:43;96976.88;;;24.24;63.99
60228;BME280;46091;46.512;6.626;2022-08-19T11:20:46;96980.38;;;24.24;63.90
60228;BME280;46091;46.512;6.626;2022-08-19T11:22:51;96979.00;;;24.27;63.88
60228;BME280;46091;46.512;6.626;2022-08-19T11:24:53;96975.78;;;24.25;63.93
60228;BME280;46091;46.512;6.626;2022-08-19T11:27:03;96981.19;;;24.25;63.59
60228;BME280;46091;46.512;6.626;2022-08-19T11:29:07;96980.38;;;24.24;63.52
60228;BME280;46091;46.512;6.626;2022-08-19T11:31:15;96983.06;;;24.24;63.40
60228;BME280;46091;46.512;6.626;2022-08-19T11:33:18;96976.59;;;24.25;63.71
60228;BME280;46091;46.512;6.626;2022-08-19T11:35:21;96977.91;;;24.28;63.76
60228;BME280;46091;46.512;6.626;2022-08-19T11:37:24;96983.59;;;24.31;63.60
60228;BME280;46091;46.512;6.626;2022-08-19T11:39:30;96988.19;;;24.36;63.63
60228;BME280;46091;46.512;6.626;2022-08-19T11:41:34;96988.44;;;24.39;63.39
60228;BME280;46091;46.512;6.626;2022-08-19T11:43:38;96990.59;;;24.43;63.28
60228;BME280;46091;46.512;6.626;2022-08-19T11:45:41;96995.47;;;24.41;63.21
60228;BME280;46091;46.512;6.626;2022-08-19T11:47:44;96992.47;;;24.42;63.38
60228;BME280;46091;46.512;6.626;2022-08-19T11:49:48;96989.50;;;24.44;63.12
60228;BME280;46091;46.512;6.626;2022-08-19T11:51:51;96995.44;;;24.46;63.11
60228;BME280;46091;46.512;6.626;2022-08-19T11:53:56;96992.72;;;24.46;63.10
60228;BME280;46091;46.512;6.626;2022-08-19T11:55:59;96991.09;;;24.45;63.15
60228;BME280;46091;46.512;6.626;2022-08-19T11:58:02;96998.13;;;24.46;63.26
60228;BME280;46091;46.512;6.626;2022-08-19T12:00:20;96999.50;;;24.43;63.04
60228;BME280;46091;46.512;6.626;2022-08-19T12:02:24;97000.31;;;24.44;63.01
60228;BME280;46091;46.512;6.626;2022-08-19T12:04:27;96995.47;;;24.41;62.84
60228;BME280;46091;46.512;6.626;2022-08-19T12:06:32;96991.44;;;24.38;63.13
60228;BME280;46091;46.512;6.626;2022-08-19T12:08:36;96994.41;;;24.36;63.07
60228;BME280;46091;46.512;6.626;2022-08-19T12:10:40;96993.59;;;24.36;62.80
60228;BME280;46091;46.512;6.626;2022-08-19T12:12:43;96987.06;;;24.42;62.82
60228;BME280;46091;46.512;6.626;2022-08-19T12:14:55;96985.19;;;24.43;62.81
60228;BME280;46091;46.512;6.626;2022-08-19T12:17:01;96984.09;;;24.44;62.63
60228;BME280;46091;46.512;6.626;2022-08-19T12:19:06;96982.47;;;24.43;62.40
60228;BME280;46091;46.512;6.626;2022-08-19T12:21:09;96986.25;;;24.42;62.48
60228;BME280;46091;46.512;6.626;2022-08-19T12:23:15;96982.50;;;24.37;62.60
60228;BME280;46091;46.512;6.626;2022-08-19T12:25:19;96983.31;;;24.33;62.57
60228;BME280;46091;46.512;6.626;2022-08-19T12:27:24;96983.03;;;24.34;62.55
60228;BME280;46091;46.512;6.626;2022-08-19T12:29:41;96982.50;;;24.32;62.37
60228;BME280;46091;46.512;6.626;2022-08-19T12:31:44;96979.81;;;24.32;62.34
60228;BME280;46091;46.512;6.626;2022-08-19T12:33:48;96985.50;;;24.31;62.19
60228;BME280;46091;46.512;6.626;2022-08-19T12:35:53;96985.75;;;24.29;62.17
60228;BME280;46091;46.512;6.626;2022-08-19T12:37:56;96986.84;;;24.28;62.04
60228;BME280;46091;46.512;6.626;2022-08-19T12:40:00;96991.72;;;24.31;62.12
60228;BME280;46091;46.512;6.626;2022-08-19T12:42:05;96994.94;;;24.33;61.75
60228;BME280;46091;46.512;6.626;2022-08-19T12:44:08;96999.25;;;24.34;61.96
60228;BME280;46091;46.512;6.626;2022-08-19T12:46:15;96994.41;;;24.36;61.89
60228;BME280;46091;46.512;6.626;2022-08-19T12:48:18;96993.84;;;24.39;61.54
60228;BME280;46091;46.512;6.626;2022-08-19T12:50:38;96993.28;;;24.43;61.56
60228;BME280;46091;46.512;6.626;2022-08-19T12:52:41;97001.91;;;24.45;61.62
60228;BME280;46091;46.512;6.626;2022-08-19T12:54:44;96993.28;;;24.48;61.38
60228;BME280;46091;46.512;6.626;2022-08-19T12:56:47;96997.84;;;24.52;61.62
60228;BME280;46091;46.512;6.626;2022-08-19T12:58:50;96999.75;;;24.52;61.59
60228;BME280;46091;46.512;6.626;2022-08-19T13:00:53;97007.28;;;24.55;61.28
60228;BME280;46091;46.512;6.626;2022-08-19T13:02:57;97003.50;;;24.56;61.38
60228;BME280;46091;46.512;6.626;2022-08-19T13:05:01;97002.97;;;24.59;61.53
60228;BME280;46091;46.512;6.626;2022-08-19T13:07:06;96992.16;;;24.59;61.29
60228;BME280;46091;46.512;6.626;2022-08-19T13:09:10;96989.97;;;24.61;61.27
60228;BME280;46091;46.512;6.626;2022-08-19T13:11:16;97000.22;;;24.64;61.65
60228;BME280;46091;46.512;6.626;2022-08-19T13:13:19;97004.25;;;24.66;61.49
60228;BME280;46091;46.512;6.626;2022-08-19T13:15:23;97002.34;;;24.67;61.34
60228;BME280;46091;46.512;6.626;2022-08-19T13:17:26;97002.63;;;24.65;61.63
60228;BME280;46091;46.512;6.626;2022-08-19T13:19:29;97002.13;;;24.63;61.20
60228;BME280;46091;46.512;6.626;2022-08-19T13:21:36;96997.28;;;24.60;61.58
60228;BME280;46091;46.512;6.626;2022-08-19T13:23:41;97000.25;;;24.59;61.79
60228;BME280;46091;46.512;6.626;2022-08-19T13:25:44;97004.56;;;24.60;61.56
60228;BME280;46091;46.512;6.626;2022-08-19T13:27:49;97000.50;;;24.57;61.29
60228;BME280;46091;46.512;6.626;2022-08-19T13:29:52;97000.25;;;24.54;61.75
60228;BME280;46091;46.512;6.626;2022-08-19T13:32:12;96994.84;;;24.54;61.62
60228;BME280;46091;46.512;6.626;2022-08-19T13:34:36;96994.84;;;24.54;61.41
60228;BME280;46091;46.512;6.626;2022-08-19T13:36:39;96993.22;;;24.58;61.49
60228;BME280;46091;46.512;6.626;2022-08-19T13:38:43;96996.47;;;24.60;61.37
60228;BME280;46091;46.512;6.626;2022-08-19T13:40:47;96992.66;;;24.61;61.25
60228;BME280;46091;46.512;6.626;2022-08-19T13:42:52;96994.00;;;24.63;60.98
60228;BME280;46091;46.512;6.626;2022-08-19T13:44:55;96988.31;;;24.65;61.04
60228;BME280;46091;46.512;6.626;2022-08-19T13:47:01;96986.94;;;24.67;61.08
60228;BME280;46091;46.512;6.626;2022-08-19T13:49:09;96982.09;;;24.70;60.80
60228;BME280;46091;46.512;6.626;2022-08-19T13:51:12;96986.94;;;24.73;60.85
60228;BME280;46091;46.512;6.626;2022-08-19T13:53:15;96996.38;;;24.75;60.86
60228;BME280;46091;46.512;6.626;2022-08-19T13:55:21;96985.56;;;24.75;60.94
60228;BME280;46091;46.512;6.626;2022-08-19T13:57:25;97001.53;;;24.72;60.96
60228;BME280;46091;46.512;6.626;2022-08-19T13:59:28;97002.63;;;24.71;60.86
60228;BME280;46091;46.512;6.626;2022-08-19T14:01:31;97000.72;;;24.71;60.88
60228;BME280;46091;46.512;6.626;2022-08-19T14:03:34;96998.84;;;24.72;61.10
60228;BME280;46091;46.512;6.626;2022-08-19T14:05:38;96997.50;;;24.69;61.06
60228;BME280;46091;46.512;6.626;2022-08-19T14:07:41;97002.34;;;24.67;60.76
60228;BME280;46091;46.512;6.626;2022-08-19T14:09:44;97004.00;;;24.63;61.01
60228;BME280;46091;46.512;6.626;2022-08-19T14:11:51;96997.56;;;24.59;60.92
60228;BME280;46091;46.512;6.626;2022-08-19T14:13:54;96991.34;;;24.58;60.99
60228;BME280;46091;46.512;6.626;2022-08-19T14:15:58;96992.94;;;24.59;61.11
60228;BME280;46091;46.512;6.626;2022-08-19T14:18:01;96992.66;;;24.61;60.79
60228;BME280;46091;46.512;6.626;2022-08-19T14:20:05;96992.16;;;24.59;60.92
60228;BME280;46091;46.512;6.626;2022-08-19T14:22:17;96996.75;;;24.58;60.88
60228;BME280;46091;46.512;6.626;2022-08-19T14:24:22;96999.16;;;24.60;60.60
60228;BME280;46091;46.512;6.626;2022-08-19T14:26:25;96993.75;;;24.60;60.87
60228;BME280;46091;46.512;6.626;2022-08-19T14:28:30;96992.66;;;24.61;60.95
60228;BME280;46091;46.512;6.626;2022-08-19T14:30:34;96991.59;;;24.62;60.82
60228;BME280;46091;46.512;6.626;2022-08-19T14:32:38;96992.09;;;24.64;61.03
60228;BME280;46091;46.512;6.626;2022-08-19T14:34:41;96982.38;;;24.63;60.96
60228;BME280;46091;46.512;6.626;2022-08-19T14:36:47;96994.00;;;24.63;60.83
60228;BME280;46091;46.512;6.626;2022-08-19T14:38:50;96991.03;;;24.65;60.73
60228;BME280;46091;46.512;6.626;2022-08-19T14:40:53;96999.13;;;24.65;60.45
60228;BME280;46091;46.512;6.626;2022-08-19T14:42:59;96998.59;;;24.63;60.73
60228;BME280;46091;46.512;6.626;2022-08-19T14:45:08;97002.13;;;24.63;60.80
60228;BME280;46091;46.512;6.626;2022-08-19T14:47:11;97000.78;;;24.61;60.32
60228;BME280;46091;46.512;6.626;2022-08-19T14:49:14;96994.28;;;24.57;60.76
60228;BME280;46091;46.512;6.626;2022-08-19T14:51:18;96998.88;;;24.56;60.48
60228;BME280;46091;46.512;6.626;2022-08-19T14:53:21;97004.28;;;24.56;60.89
60228;BME280;46091;46.512;6.626;2022-08-19T14:55:24;97000.50;;;24.57;60.36
60228;BME280;46091;46.512;6.626;2022-08-19T14:57:26;97006.75;;;24.58;60.32
60228;BME280;46091;46.512;6.626;2022-08-19T14:59:29;97009.44;;;24.58;60.79
60228;BME280;46091;46.512;6.626;2022-08-19T15:01:34;97012.44;;;24.51;60.56
60228;BME280;46091;46.512;6.626;2022-08-19T15:03:39;97016.22;;;24.50;60.69
60228;BME280;46091;46.512;6.626;2022-08-19T15:05:42;97018.94;;;24.45;60.50
60228;BME280;46091;46.512;6.626;2022-08-19T15:07:45;97018.13;;;24.45;61.10
60228;BME280;46091;46.512;6.626;2022-08-19T15:09:48;97024.09;;;24.42;60.86
60228;BME280;46091;46.512;6.626;2022-08-19T15:11:52;97017.63;;;24.37;60.68
60228;BME280;46091;46.512;6.626;2022-08-19T15:13:55;97021.69;;;24.35;60.90